Downpatrick, United Kingdom
Current Conditions -  °F | °C
As of 1:20 PM on Friday 28 Nov 2014 (Local Time) from EGAC Reporting Station
Rain Showers Rain Showers  
Wind Chill: 11°   Ceiling: 2400
Heat Index: 11°   Visibility: 6mi
Dew Point:   Wind: 12mph
Humidity: 88%   Direction: 60°ENE
Pressure: 29.71"   Gusts: NA
Location:  54.33°N, 5.7°W
Report Text: EGAC 281320Z 06010KT 9999 7000W VCSH FEW011 SCT017 BKN024 11/09 Q1006
Loading
Personal Weather Stations






























Interactive Weather Map New forecast layout! Learn more

10-Day Weather Forecast

Advertisements
Track Severe Weather on mobile